createdAt,value
2018-08-06T00:00:55.989Z,20.60
2018-08-06T00:02:27.557Z,21.40
2018-08-06T00:03:59.276Z,20.00
2018-08-06T00:05:30.695Z,20.30
2018-08-06T00:07:02.265Z,18.30
2018-08-06T00:08:33.833Z,19.00
2018-08-06T00:10:05.402Z,18.30
2018-08-06T00:11:36.974Z,18.10
2018-08-06T00:13:08.540Z,17.70
2018-08-06T00:14:40.109Z,18.30
2018-08-06T00:16:11.928Z,21.60
2018-08-06T00:17:43.247Z,22.80
2018-08-06T00:19:14.816Z,21.90
2018-08-06T00:20:46.383Z,22.60
2018-08-06T00:22:17.953Z,23.20
2018-08-06T00:23:49.522Z,21.40
2018-08-06T00:25:21.090Z,23.20
2018-08-06T00:26:52.659Z,22.20
2018-08-06T00:28:24.231Z,22.40
2018-08-06T00:29:55.806Z,18.30
2018-08-06T00:31:27.366Z,18.30
2018-08-06T00:32:58.935Z,18.60
2018-08-06T00:34:30.854Z,17.50
2018-08-06T00:36:02.073Z,19.60
2018-08-06T00:37:33.641Z,20.80
2018-08-06T00:39:05.210Z,24.60
2018-08-06T00:40:36.779Z,25.90
2018-08-06T00:42:08.351Z,25.20
2018-08-06T00:43:39.917Z,26.30
2018-08-06T00:45:11.486Z,29.30
2018-08-06T00:46:43.054Z,26.50
2018-08-06T00:48:14.623Z,31.30
2018-08-06T00:49:46.192Z,27.10
2018-08-06T00:51:17.761Z,25.00
2018-08-06T00:52:49.430Z,26.80
2018-08-06T00:54:20.899Z,26.90
2018-08-06T00:55:52.467Z,25.20
2018-08-06T00:57:24.037Z,22.10
2018-08-06T00:58:55.607Z,19.90
2018-08-06T01:00:27.177Z,22.50
2018-08-06T01:01:58.746Z,23.30
2018-08-06T01:03:30.313Z,25.20
2018-08-06T01:05:01.881Z,24.70
2018-08-06T01:06:33.453Z,27.30
2018-08-06T01:08:05.019Z,31.10
2018-08-06T01:09:36.589Z,26.50
2018-08-06T01:11:08.257Z,29.90
2018-08-06T01:12:39.729Z,29.80
2018-08-06T01:14:11.296Z,30.90
2018-08-06T01:15:42.864Z,30.80
2018-08-06T01:17:14.433Z,32.60
2018-08-06T01:18:46.001Z,26.90
2018-08-06T01:20:17.570Z,30.60
2018-08-06T01:21:49.139Z,27.30
2018-08-06T01:23:20.708Z,24.80
2018-08-06T01:24:52.277Z,26.70
2018-08-06T01:26:23.849Z,24.90
2018-08-06T01:27:55.416Z,25.40
2018-08-06T01:29:27.084Z,23.80
2018-08-06T01:30:58.553Z,24.70
2018-08-06T01:32:30.129Z,23.80
2018-08-06T01:34:01.692Z,23.80
2018-08-06T01:35:33.511Z,26.20
2018-08-06T01:37:04.919Z,20.60
2018-08-06T01:38:36.402Z,24.30
2018-08-06T01:40:07.972Z,26.20
2018-08-06T01:41:39.536Z,23.60
2018-08-06T01:43:11.105Z,24.10
2018-08-06T01:44:42.674Z,22.50
2018-08-06T01:46:14.243Z,21.30
2018-08-06T01:47:45.913Z,25.50
2018-08-06T01:49:17.384Z,21.80
2018-08-06T01:50:48.957Z,25.40
2018-08-06T01:52:20.520Z,22.40
2018-08-06T01:53:52.089Z,21.50
2018-08-06T01:55:23.657Z,23.10
2018-08-06T01:56:55.227Z,21.20
2018-08-06T01:58:26.795Z,22.10
2018-08-06T01:59:58.368Z,21.60
2018-08-06T02:01:29.934Z,22.70
2018-08-06T02:03:01.504Z,21.00
2018-08-06T02:04:33.074Z,23.10
2018-08-06T02:06:04.891Z,24.50
2018-08-06T02:07:36.209Z,22.30
2018-08-06T02:09:07.778Z,26.10
2018-08-06T02:10:39.349Z,25.50
2018-08-06T02:12:10.916Z,24.10
2018-08-06T02:13:42.490Z,25.80
2018-08-06T02:15:14.058Z,28.70
2018-08-06T02:16:45.626Z,26.70
2018-08-06T02:18:17.195Z,28.30
2018-08-06T02:19:48.764Z,25.40
2018-08-06T02:21:20.339Z,25.70
2018-08-06T02:22:51.901Z,24.90
2018-08-06T02:24:23.570Z,21.80
2018-08-06T02:25:55.040Z,21.80
2018-08-06T02:27:26.609Z,21.10
2018-08-06T02:28:58.178Z,24.90
2018-08-06T02:30:29.747Z,27.60
2018-08-06T02:32:01.317Z,25.40
2018-08-06T02:33:32.886Z,23.10
2018-08-06T02:35:04.457Z,23.00
2018-08-06T02:36:36.174Z,24.30
2018-08-06T02:38:07.593Z,20.50
2018-08-06T02:39:39.164Z,22.60
2018-08-06T02:41:10.732Z,22.90
2018-08-06T02:42:42.403Z,23.50
2018-08-06T02:44:13.870Z,21.00
2018-08-06T02:45:45.439Z,23.70
2018-08-06T02:47:17.009Z,24.20
2018-08-06T02:48:48.578Z,22.00
2018-08-06T02:50:20.147Z,21.50
2018-08-06T02:51:51.716Z,19.90
2018-08-06T02:53:23.288Z,19.30
2018-08-06T02:54:54.860Z,20.00
2018-08-06T02:56:26.423Z,18.00
2018-08-06T02:57:57.992Z,19.10
2018-08-06T02:59:29.561Z,17.80
2018-08-06T03:01:01.231Z,17.80
2018-08-06T03:02:32.700Z,17.10
2018-08-06T03:04:04.269Z,16.20
2018-08-06T03:05:35.837Z,16.40
2018-08-06T03:07:07.657Z,16.60
2018-08-06T03:08:38.975Z,17.60
2018-08-06T03:10:10.574Z,17.00
2018-08-06T03:11:42.116Z,15.30
2018-08-06T03:13:13.784Z,14.80
2018-08-06T03:14:45.251Z,16.00
2018-08-06T03:16:16.820Z,14.40
2018-08-06T03:17:48.389Z,15.20
2018-08-06T03:19:20.062Z,14.50
2018-08-06T03:20:51.576Z,14.40
2018-08-06T03:22:23.096Z,13.60
2018-08-06T03:23:54.665Z,12.90
2018-08-06T03:25:26.235Z,14.40
2018-08-06T03:26:57.803Z,13.40
2018-08-06T03:28:29.372Z,13.90
2018-08-06T03:30:00.945Z,14.20
2018-08-06T03:31:32.511Z,13.00
2018-08-06T03:33:04.079Z,11.40
2018-08-06T03:34:35.648Z,12.00
2018-08-06T03:36:07.217Z,12.10
2018-08-06T03:37:39.136Z,13.60
2018-08-06T03:39:10.354Z,12.40
2018-08-06T03:40:41.924Z,12.30
2018-08-06T03:42:13.492Z,11.90
2018-08-06T03:43:45.161Z,11.70
2018-08-06T03:45:16.629Z,11.50
2018-08-06T03:46:48.198Z,11.20
2018-08-06T03:48:19.767Z,12.90
2018-08-06T03:49:51.436Z,11.70
2018-08-06T03:51:22.904Z,12.10
2018-08-06T03:52:54.526Z,11.20
2018-08-06T03:54:26.042Z,12.00
2018-08-06T03:55:57.711Z,12.80
2018-08-06T03:57:29.179Z,13.00
2018-08-06T03:59:00.748Z,11.90
2018-08-06T04:00:32.317Z,11.20
2018-08-06T04:02:03.885Z,12.00
2018-08-06T04:03:35.453Z,12.10
2018-08-06T04:05:07.024Z,13.80
2018-08-06T04:06:38.591Z,11.70
2018-08-06T04:08:10.310Z,13.50
2018-08-06T04:09:41.728Z,11.70
2018-08-06T04:11:13.297Z,11.70
2018-08-06T04:12:44.866Z,12.50
2018-08-06T04:14:16.535Z,14.00
2018-08-06T04:15:48.003Z,13.60
2018-08-06T04:17:19.572Z,14.60
2018-08-06T04:18:51.141Z,14.30
2018-08-06T04:20:22.862Z,14.50
2018-08-06T04:21:54.282Z,16.60
2018-08-06T04:23:25.848Z,16.70
2018-08-06T04:24:57.416Z,15.30
2018-08-06T04:26:28.984Z,20.60
2018-08-06T04:28:00.557Z,20.80
2018-08-06T04:29:32.121Z,25.00
2018-08-06T04:31:03.693Z,28.00
2018-08-06T04:32:35.358Z,27.60
2018-08-06T04:34:06.831Z,28.10
2018-08-06T04:35:38.395Z,22.60
2018-08-06T04:37:09.964Z,24.60
2018-08-06T04:38:41.783Z,33.40
2018-08-06T04:40:13.104Z,36.50
2018-08-06T04:41:44.669Z,36.40
2018-08-06T04:43:16.237Z,37.40
2018-08-06T04:44:47.905Z,43.10
2018-08-06T04:46:19.373Z,39.90
2018-08-06T04:47:50.941Z,46.70
2018-08-06T04:49:22.510Z,46.90
2018-08-06T04:50:54.281Z,47.90
2018-08-06T04:52:25.648Z,49.60
2018-08-06T04:53:57.215Z,51.50
2018-08-06T04:55:28.783Z,55.40
2018-08-06T04:57:00.351Z,60.80
2018-08-06T04:58:31.919Z,54.70
2018-08-06T05:00:03.488Z,60.90
2018-08-06T05:01:35.056Z,69.40
2018-08-06T05:03:06.624Z,72.00
2018-08-06T05:04:38.193Z,80.70
2018-08-06T05:06:09.761Z,74.30
2018-08-06T05:07:41.331Z,71.20
2018-08-06T05:09:13.197Z,66.90
2018-08-06T05:10:44.465Z,72.70
2018-08-06T05:12:16.033Z,63.40
2018-08-06T05:13:47.602Z,71.20
2018-08-06T05:15:19.270Z,79.00
2018-08-06T05:16:50.738Z,79.90
2018-08-06T05:18:22.306Z,73.30
2018-08-06T05:19:53.874Z,80.60
2018-08-06T05:21:25.543Z,85.60
2018-08-06T05:22:57.011Z,83.70
2018-08-06T05:24:28.579Z,84.50
2018-08-06T05:26:00.148Z,87.20
2018-08-06T05:27:32.219Z,86.30
2018-08-06T05:29:03.285Z,89.60
2018-08-06T05:30:34.857Z,88.00
2018-08-06T05:32:06.420Z,91.80
2018-08-06T05:33:37.993Z,95.60
2018-08-06T05:35:09.557Z,91.40
2018-08-06T05:36:41.125Z,93.40
2018-08-06T05:38:12.694Z,90.10
2018-08-06T05:39:44.414Z,96.30
2018-08-06T05:41:15.836Z,100.50
2018-08-06T05:42:47.399Z,95.10
2018-08-06T05:44:18.967Z,107.10
2018-08-06T05:45:50.787Z,109.00
2018-08-06T05:47:22.105Z,109.90
2018-08-06T05:48:53.674Z,110.50
2018-08-06T05:50:25.242Z,101.50
2018-08-06T05:51:56.910Z,115.30
2018-08-06T05:53:28.378Z,115.60
2018-08-06T05:54:59.950Z,117.40
2018-08-06T05:56:31.516Z,109.00
2018-08-06T05:58:03.084Z,110.10
2018-08-06T05:59:34.652Z,118.40
2018-08-06T06:01:06.221Z,111.70
2018-08-06T06:02:37.789Z,111.10
2018-08-06T06:04:09.461Z,125.20
2018-08-06T06:05:40.926Z,128.60
2018-08-06T06:07:12.495Z,117.70
2018-08-06T06:08:44.063Z,127.30
2018-08-06T06:10:15.886Z,127.40
2018-08-06T06:11:47.205Z,126.30
2018-08-06T06:13:18.768Z,137.40
2018-08-06T06:14:50.340Z,143.90
2018-08-06T06:16:22.006Z,152.80
2018-08-06T06:17:53.475Z,149.40
2018-08-06T06:19:25.044Z,148.10
2018-08-06T06:20:56.613Z,163.40
2018-08-06T06:22:28.432Z,148.00
2018-08-06T06:23:59.753Z,145.80
2018-08-06T06:25:31.318Z,151.90
2018-08-06T06:27:02.890Z,152.20
2018-08-06T06:28:34.481Z,144.30
2018-08-06T06:30:06.028Z,175.30
2018-08-06T06:31:37.622Z,165.30
2018-08-06T06:33:09.163Z,160.10
2018-08-06T06:34:40.811Z,162.10
2018-08-06T06:36:12.299Z,166.50
2018-08-06T06:37:43.875Z,193.20
2018-08-06T06:39:15.436Z,248.60
2018-08-06T06:40:47.356Z,219.80
2018-08-06T06:42:18.573Z,297.40
2018-08-06T06:43:50.148Z,292.70
2018-08-06T06:45:21.710Z,323.80
2018-08-06T06:46:53.479Z,292.00
2018-08-06T06:48:24.853Z,301.60
2018-08-06T06:49:56.415Z,228.90
2018-08-06T06:51:27.984Z,295.60
2018-08-06T06:52:59.702Z,282.30
2018-08-06T06:54:31.205Z,254.90
2018-08-06T06:56:02.688Z,245.80
2018-08-06T06:57:34.257Z,340.60
2018-08-06T06:59:06.175Z,299.00
2018-08-06T07:00:37.393Z,280.10
2018-08-06T07:02:08.961Z,324.70
2018-08-06T07:03:40.530Z,328.80
2018-08-06T07:05:12.099Z,376.50
2018-08-06T07:06:43.667Z,394.40
2018-08-06T07:08:15.235Z,334.70
2018-08-06T07:09:46.803Z,296.20
2018-08-06T07:11:18.525Z,290.40
2018-08-06T07:12:49.940Z,290.60
2018-08-06T07:14:21.509Z,291.30
2018-08-06T07:15:53.077Z,222.00
2018-08-06T07:17:24.745Z,225.50
2018-08-06T07:18:56.215Z,289.40
2018-08-06T07:20:27.786Z,319.70
2018-08-06T07:21:59.349Z,350.60
2018-08-06T07:23:31.018Z,423.70
2018-08-06T07:25:02.488Z,417.70
2018-08-06T07:26:34.061Z,335.90
2018-08-06T07:28:05.622Z,342.50
2018-08-06T07:29:37.191Z,313.10
2018-08-06T07:31:08.760Z,288.50
2018-08-06T07:32:40.328Z,373.30
2018-08-06T07:34:11.897Z,289.20
2018-08-06T07:35:43.564Z,340.00
2018-08-06T07:37:15.033Z,286.30
2018-08-06T07:38:46.600Z,250.50
2018-08-06T07:40:18.170Z,227.00
2018-08-06T07:41:49.837Z,232.30
2018-08-06T07:43:21.306Z,223.50
2018-08-06T07:44:52.873Z,193.70
2018-08-06T07:46:24.442Z,186.60
2018-08-06T07:47:56.164Z,201.70
2018-08-06T07:49:27.602Z,206.30
2018-08-06T07:50:59.148Z,183.00
2018-08-06T07:52:30.716Z,190.00
2018-08-06T07:54:02.485Z,180.90
2018-08-06T07:55:33.854Z,188.70
2018-08-06T07:57:05.422Z,178.40
2018-08-06T07:58:36.991Z,169.10
2018-08-06T08:00:08.559Z,178.50
2018-08-06T08:01:40.128Z,167.30
2018-08-06T08:03:11.697Z,186.10
2018-08-06T08:04:43.267Z,188.20
2018-08-06T08:06:14.848Z,203.10
2018-08-06T08:07:46.402Z,209.70
2018-08-06T08:09:17.971Z,202.60
2018-08-06T08:10:49.539Z,155.50
2018-08-06T08:12:21.358Z,128.90
2018-08-06T08:13:52.677Z,101.40
2018-08-06T08:15:24.244Z,87.70
2018-08-06T08:16:55.812Z,125.00
2018-08-06T08:18:28.232Z,65.60
2018-08-06T08:19:59.034Z,60.60
2018-08-06T08:21:30.518Z,55.40
2018-08-06T08:23:02.084Z,46.90
2018-08-06T08:24:33.754Z,49.80
2018-08-06T08:26:05.220Z,42.90
2018-08-06T08:27:36.789Z,44.70
2018-08-06T08:29:08.357Z,36.90
2018-08-06T08:30:40.028Z,34.80
2018-08-06T08:32:11.493Z,35.70
2018-08-06T08:33:43.061Z,35.50
2018-08-06T08:35:14.630Z,33.80
2018-08-06T08:36:46.198Z,32.50
2018-08-06T08:38:17.768Z,30.30
2018-08-06T08:39:49.334Z,25.70
2018-08-06T08:41:20.902Z,25.40
2018-08-06T08:42:52.721Z,30.00
2018-08-06T08:44:24.039Z,22.40
2018-08-06T08:45:55.607Z,24.30
2018-08-06T08:47:27.175Z,23.00
2018-08-06T08:48:58.843Z,23.60
2018-08-06T08:50:30.313Z,24.50
2018-08-06T08:52:01.881Z,27.60
2018-08-06T08:53:33.448Z,21.40
2018-08-06T08:55:05.117Z,20.00
2018-08-06T08:56:36.585Z,19.90
2018-08-06T08:58:08.152Z,24.00
2018-08-06T09:01:11.289Z,22.10
2018-08-06T09:02:42.858Z,20.20
2018-08-06T09:04:14.426Z,25.30
2018-08-06T09:05:45.994Z,26.60
2018-08-06T09:07:17.711Z,28.70
2018-08-06T09:08:49.132Z,24.20
2018-08-06T09:10:20.698Z,22.50
2018-08-06T09:11:52.268Z,22.10
2018-08-06T09:13:23.836Z,25.60
2018-08-06T09:14:55.403Z,20.90
2018-08-06T09:16:26.974Z,24.80
2018-08-06T09:17:58.540Z,20.60
2018-08-06T09:19:30.108Z,22.30
2018-08-06T09:21:01.677Z,21.70
2018-08-06T09:22:33.249Z,26.30
2018-08-06T09:24:04.815Z,25.50
2018-08-06T09:25:36.584Z,25.30
2018-08-06T09:27:07.949Z,29.30
2018-08-06T09:28:39.519Z,24.10
2018-08-06T09:30:11.089Z,24.10
2018-08-06T09:31:42.655Z,26.20
2018-08-06T09:33:14.224Z,26.70
2018-08-06T09:34:45.792Z,29.20
2018-08-06T09:36:17.363Z,26.90
2018-08-06T09:37:48.930Z,28.00
2018-08-06T09:39:20.499Z,26.00
2018-08-06T09:40:52.069Z,22.60
2018-08-06T09:42:23.638Z,25.50
2018-08-06T09:43:55.302Z,28.20
2018-08-06T09:45:26.774Z,37.80
2018-08-06T09:46:58.339Z,25.40
2018-08-06T09:48:29.915Z,22.20
2018-08-06T09:50:01.477Z,21.70
2018-08-06T09:51:33.084Z,21.40
2018-08-06T09:53:04.613Z,23.70
2018-08-06T09:54:36.369Z,22.90
2018-08-06T09:56:07.749Z,24.30
2018-08-06T09:57:39.361Z,22.90
2018-08-06T09:59:11.412Z,27.00
2018-08-06T10:00:42.453Z,27.70
2018-08-06T10:02:14.122Z,27.00
2018-08-06T10:08:20.496Z,26.80
2018-08-06T10:09:51.863Z,25.80
2018-08-06T10:11:23.637Z,31.00
2018-08-06T10:12:54.998Z,29.50
2018-08-06T10:14:26.568Z,33.70
2018-08-06T10:15:58.133Z,31.80
2018-08-06T10:17:29.701Z,27.90
2018-08-06T10:19:01.372Z,27.20
2018-08-06T10:20:32.938Z,24.20
2018-08-06T10:22:04.407Z,28.00
2018-08-06T10:23:35.977Z,29.10
2018-08-06T10:25:07.545Z,30.90
2018-08-06T10:26:39.115Z,28.00
2018-08-06T10:28:10.679Z,29.80
2018-08-06T10:29:42.248Z,28.70
2018-08-06T10:31:13.816Z,31.90
2018-08-06T10:34:17.480Z,28.90
2018-08-06T10:35:48.521Z,29.70
2018-08-06T10:37:20.091Z,34.00
2018-08-06T10:38:51.862Z,30.70
2018-08-06T10:41:54.898Z,35.40
2018-08-06T10:43:26.407Z,27.20
2018-08-06T10:44:57.931Z,26.20
2018-08-06T10:48:01.596Z,26.10
2018-08-06T10:49:32.802Z,26.00
2018-08-06T10:51:04.206Z,24.10
2018-08-06T10:52:35.774Z,24.80
2018-08-06T10:54:08.048Z,23.10
2018-08-06T10:55:38.962Z,21.50
2018-08-06T10:57:10.481Z,21.20
2018-08-06T10:58:42.253Z,24.50
2018-08-06T11:00:13.720Z,23.10
2018-08-06T11:01:45.392Z,25.80
2018-08-06T11:03:16.758Z,26.60
2018-08-06T11:04:48.327Z,27.00
2018-08-06T11:06:19.895Z,30.10
2018-08-06T11:07:51.666Z,25.20
2018-08-06T11:10:54.628Z,29.20
2018-08-06T11:12:26.171Z,30.10
2018-08-06T11:13:58.278Z,28.40
2018-08-06T11:17:02.011Z,26.90
2018-08-06T11:18:32.548Z,28.70
2018-08-06T11:20:04.219Z,22.90
2018-08-06T11:21:35.889Z,23.20
2018-08-06T11:24:38.733Z,23.30
2018-08-06T11:26:10.296Z,23.50
2018-08-06T11:29:13.430Z,25.00
2018-08-06T11:33:48.238Z,27.10
2018-08-06T11:35:19.707Z,26.70
2018-08-06T11:36:51.324Z,25.70
2018-08-06T11:38:22.913Z,26.30
2018-08-06T11:39:54.498Z,27.60
2018-08-06T11:41:26.204Z,26.60
2018-08-06T11:42:57.604Z,28.80
2018-08-06T11:44:29.374Z,27.80
2018-08-06T11:46:01.109Z,31.20
2018-08-06T11:47:32.631Z,26.70
2018-08-06T11:49:03.928Z,29.50
2018-08-06T11:50:35.402Z,29.00
2018-08-06T11:53:40.044Z,28.70
2018-08-06T11:55:10.108Z,27.80
2018-08-06T11:58:13.772Z,28.50
2018-08-06T11:59:45.118Z,27.30
2018-08-06T12:01:16.585Z,33.40
2018-08-06T12:04:19.826Z,33.90
2018-08-06T12:05:51.119Z,34.20
2018-08-06T12:07:22.963Z,36.30
2018-08-06T12:08:54.235Z,42.40
2018-08-06T12:10:26.032Z,42.10
2018-08-06T12:11:57.467Z,44.10
2018-08-06T12:13:29.002Z,44.60
2018-08-06T12:15:00.580Z,44.60
2018-08-06T12:16:32.075Z,41.80
2018-08-06T12:18:03.643Z,42.00
2018-08-06T12:19:35.214Z,46.40
2018-08-06T12:24:11.115Z,40.20
2018-08-06T12:25:41.836Z,41.90
2018-08-06T12:27:13.621Z,40.00
2018-08-06T12:28:44.633Z,36.40
2018-08-06T12:30:16.509Z,36.70
2018-08-06T12:33:19.348Z,30.00
2018-08-06T12:34:50.916Z,28.60
2018-08-06T12:36:22.488Z,27.70
2018-08-06T12:37:54.361Z,28.20
2018-08-06T12:39:25.629Z,27.80
2018-08-06T12:42:28.969Z,34.30
2018-08-06T12:44:00.339Z,33.80
2018-08-06T12:45:31.915Z,36.20
2018-08-06T12:47:03.688Z,36.20
2018-08-06T12:48:35.687Z,34.70
2018-08-06T12:50:06.874Z,33.40
2018-08-06T12:51:38.203Z,37.40
2018-08-06T12:53:09.871Z,39.10
2018-08-06T12:54:41.340Z,42.40
2018-08-06T12:57:44.482Z,36.90
2018-08-06T12:59:16.052Z,33.00
2018-08-06T13:00:47.624Z,32.50
2018-08-06T13:02:19.243Z,32.50
2018-08-06T13:03:50.784Z,34.40
2018-08-06T13:05:22.334Z,29.90
2018-08-06T13:08:25.799Z,30.40
2018-08-06T13:09:57.253Z,29.60
2018-08-06T13:13:00.190Z,34.10
2018-08-06T13:14:31.761Z,34.40
2018-08-06T13:16:03.334Z,29.80
2018-08-06T13:17:35.442Z,31.30
2018-08-06T13:19:06.478Z,31.80
2018-08-06T13:20:38.576Z,31.50
2018-08-06T13:22:09.667Z,37.30
2018-08-06T13:23:41.194Z,31.70
2018-08-06T13:25:13.333Z,32.70
2018-08-06T13:26:44.439Z,34.30
2018-08-06T13:28:15.910Z,31.50
2018-08-06T13:29:47.787Z,31.80
2018-08-06T13:31:19.102Z,31.40
2018-08-06T13:32:50.638Z,31.20
2018-08-06T13:34:22.229Z,34.70
2018-08-06T13:35:54.043Z,32.20
2018-08-06T13:37:25.416Z,32.70
2018-08-06T13:38:56.926Z,30.90
2018-08-06T13:40:28.538Z,30.60
2018-08-06T13:42:00.069Z,30.70
2018-08-06T13:43:31.638Z,29.90
2018-08-06T13:45:03.606Z,36.20
2018-08-06T13:46:34.781Z,31.40
2018-08-06T13:48:06.484Z,28.10
2018-08-06T13:49:37.920Z,29.30
2018-08-06T13:52:41.066Z,30.00
2018-08-06T13:54:12.720Z,30.40
2018-08-06T13:55:44.415Z,29.70
2018-08-06T13:57:15.785Z,32.20
2018-08-06T13:58:47.358Z,32.90
2018-08-06T14:00:19.241Z,34.70
2018-08-06T14:01:50.708Z,34.40
2018-08-06T14:03:22.281Z,29.20
2018-08-06T14:04:53.747Z,33.60
2018-08-06T14:06:25.521Z,33.10
2018-08-06T14:07:56.993Z,32.10
2018-08-06T14:09:28.665Z,33.00
2018-08-06T14:11:00.020Z,31.30
2018-08-06T14:12:31.504Z,31.80
2018-08-06T14:14:03.077Z,31.10
2018-08-06T14:17:06.746Z,29.90
2018-08-06T14:18:37.790Z,30.70
2018-08-06T14:21:41.236Z,32.20
2018-08-06T14:23:12.607Z,34.00
2018-08-06T14:24:44.277Z,37.40
2018-08-06T14:26:15.650Z,42.00
2018-08-06T14:29:18.854Z,45.20
2018-08-06T14:30:50.411Z,51.40
2018-08-06T14:32:22.019Z,49.60
2018-08-06T14:33:53.502Z,47.30
2018-08-06T14:35:25.378Z,49.00
2018-08-06T14:36:56.641Z,55.00
2018-08-06T14:39:59.921Z,53.70
2018-08-06T14:41:31.456Z,51.10
2018-08-06T14:44:34.566Z,54.40
2018-08-06T14:46:06.064Z,48.20
2018-08-06T14:47:37.887Z,58.50
2018-08-06T14:49:09.206Z,52.60
2018-08-06T14:55:15.859Z,52.50
2018-08-06T14:56:47.586Z,48.10
2018-08-06T14:58:18.940Z,49.20
2018-08-06T15:01:21.868Z,42.20
2018-08-06T15:02:53.346Z,39.20
2018-08-06T15:05:56.485Z,37.20
2018-08-06T15:10:31.193Z,38.50
2018-08-06T15:12:02.808Z,40.80
2018-08-06T15:13:34.341Z,33.80
2018-08-06T15:15:05.906Z,34.10
2018-08-06T15:16:37.628Z,36.10
2018-08-06T15:18:09.353Z,29.90
2018-08-06T15:19:40.639Z,31.90
2018-08-06T15:21:12.397Z,30.00
2018-08-06T15:22:43.976Z,31.90
2018-08-06T15:24:15.335Z,33.70
2018-08-06T15:25:47.436Z,31.60
2018-08-06T15:27:19.010Z,32.50
2018-08-06T15:28:50.057Z,33.60
2018-08-06T15:30:21.643Z,32.40
2018-08-06T15:31:53.536Z,30.20
2018-08-06T15:33:24.969Z,22.70
2018-08-06T15:34:56.893Z,20.80
2018-08-06T15:37:59.988Z,24.30
2018-08-06T15:39:31.583Z,28.00
2018-08-06T15:41:02.638Z,24.00
2018-08-06T15:42:34.197Z,30.10
2018-08-06T15:44:05.770Z,28.90
2018-08-06T15:45:37.350Z,32.80
2018-08-06T15:47:09.112Z,28.60
2018-08-06T15:48:40.482Z,32.00
2018-08-06T15:50:12.056Z,33.40
2018-08-06T15:51:44.154Z,33.50
2018-08-06T15:53:15.398Z,34.10
2018-08-06T15:56:18.342Z,34.00
2018-08-06T15:59:21.929Z,37.20
2018-08-06T16:00:53.825Z,36.60
2018-08-06T16:02:24.627Z,37.20
2018-08-06T16:03:56.888Z,41.20
2018-08-06T16:05:27.971Z,45.50
2018-08-06T16:06:59.543Z,47.40
2018-08-06T16:08:30.910Z,54.30
2018-08-06T16:10:02.483Z,52.30
2018-08-06T16:11:34.154Z,60.50
2018-08-06T16:13:05.652Z,64.90
2018-08-06T16:16:08.839Z,54.60
2018-08-06T16:17:40.646Z,54.70
2018-08-06T16:22:15.047Z,47.00
2018-08-06T16:25:18.489Z,47.40
2018-08-06T16:26:49.945Z,43.50
2018-08-06T16:28:21.594Z,46.70
2018-08-06T16:29:52.944Z,33.30
2018-08-06T16:31:24.567Z,35.20
2018-08-06T16:32:56.238Z,37.50
2018-08-06T16:34:27.909Z,38.40
2018-08-06T16:37:30.885Z,42.80
2018-08-06T16:39:02.572Z,39.80
2018-08-06T16:43:37.077Z,38.60
2018-08-06T16:45:09.202Z,39.10
2018-08-06T16:46:40.209Z,34.30
2018-08-06T16:48:11.817Z,40.30
2018-08-06T16:49:43.547Z,41.80
2018-08-06T16:51:15.181Z,42.40
2018-08-06T16:52:46.945Z,33.20
2018-08-06T16:55:49.622Z,36.60
2018-08-06T16:57:21.361Z,40.60
2018-08-06T16:58:52.799Z,39.70
2018-08-06T17:00:24.303Z,35.50
2018-08-06T17:03:27.447Z,40.90
2018-08-06T17:04:59.012Z,36.60
2018-08-06T17:06:31.285Z,32.00
2018-08-06T17:08:02.154Z,33.50
2018-08-06T17:09:34.413Z,32.30
2018-08-06T17:11:05.291Z,29.20
2018-08-06T17:12:36.878Z,32.50
2018-08-06T17:14:08.434Z,29.60
2018-08-06T17:15:40.066Z,35.40
2018-08-06T17:17:11.602Z,35.50
2018-08-06T17:18:43.139Z,38.10
2018-08-06T17:20:14.866Z,36.70
2018-08-06T17:21:46.279Z,41.80
2018-08-06T17:23:17.849Z,42.20
2018-08-06T17:24:49.591Z,37.20
2018-08-06T17:26:20.987Z,37.10
2018-08-06T17:29:24.436Z,33.50
2018-08-06T17:33:59.094Z,36.60
2018-08-06T17:35:28.140Z,39.30
2018-08-06T17:36:59.612Z,52.70
2018-08-06T17:38:31.179Z,56.20
2018-08-06T17:40:02.748Z,53.80
2018-08-06T17:41:34.317Z,51.60
2018-08-06T17:43:05.887Z,43.50
2018-08-06T17:44:37.455Z,42.90
2018-08-06T17:46:09.024Z,50.50
2018-08-06T17:49:12.268Z,44.70
2018-08-06T17:50:43.743Z,40.10
2018-08-06T17:52:15.301Z,39.00
2018-08-06T17:53:46.872Z,44.00
2018-08-06T17:55:18.744Z,40.30
2018-08-06T17:56:50.032Z,39.90
2018-08-06T17:58:21.585Z,41.50
2018-08-06T18:01:26.249Z,39.00
2018-08-06T18:02:56.303Z,41.20
2018-08-06T18:04:28.059Z,44.10
2018-08-06T18:05:59.629Z,46.50
2018-08-06T18:07:31.095Z,51.60
2018-08-06T18:09:02.814Z,50.90
2018-08-06T18:10:34.149Z,55.10
2018-08-06T18:12:05.907Z,61.90
2018-08-06T18:13:37.265Z,55.20
2018-08-06T18:15:08.835Z,55.30
2018-08-06T18:16:40.607Z,54.20
2018-08-06T18:18:12.308Z,63.30
2018-08-06T18:21:15.112Z,49.40
2018-08-06T18:24:18.251Z,47.00
2018-08-06T18:25:49.822Z,47.70
2018-08-06T18:28:53.174Z,52.80
2018-08-06T18:30:24.855Z,53.80
2018-08-06T18:31:56.107Z,55.20
2018-08-06T18:33:27.673Z,53.10
2018-08-06T18:34:59.240Z,57.10
2018-08-06T18:36:30.809Z,58.90
2018-08-06T18:38:02.378Z,58.50
2018-08-06T18:39:34.007Z,63.60
2018-08-06T18:41:05.509Z,58.10
2018-08-06T18:42:37.080Z,61.00
2018-08-06T18:44:08.651Z,60.20
2018-08-06T18:45:41.357Z,68.70
2018-08-06T18:47:11.892Z,67.20
2018-08-06T18:48:43.367Z,66.60
2018-08-06T18:50:14.945Z,67.60
2018-08-06T18:53:18.068Z,69.70
2018-08-06T18:54:49.638Z,69.50
2018-08-06T18:56:21.207Z,65.30
2018-08-06T18:57:52.819Z,63.60
2018-08-06T18:59:24.517Z,70.50
2018-08-06T19:00:55.924Z,78.60
2018-08-06T19:02:27.687Z,67.20
2018-08-06T19:03:59.258Z,89.90
2018-08-06T19:05:31.250Z,108.50
2018-08-06T19:08:33.803Z,112.80
2018-08-06T19:10:05.332Z,92.00
2018-08-06T19:11:36.901Z,86.40
2018-08-06T19:14:40.242Z,67.80
2018-08-06T19:17:43.179Z,61.40
2018-08-06T19:19:15.284Z,64.70
2018-08-06T19:20:46.318Z,55.80
2018-08-06T19:22:17.889Z,62.70
2018-08-06T19:23:49.607Z,61.70
2018-08-06T19:25:21.032Z,57.10
2018-08-06T19:26:52.602Z,58.70
2018-08-06T19:28:24.167Z,57.90
2018-08-06T19:31:27.725Z,52.00
2018-08-06T19:32:59.082Z,57.50
2018-08-06T19:36:02.018Z,62.30
2018-08-06T19:37:33.585Z,62.40
2018-08-06T19:39:05.188Z,64.60
2018-08-06T19:40:36.725Z,54.90
2018-08-06T19:42:08.294Z,52.10
2018-08-06T19:43:39.966Z,55.10
2018-08-06T19:46:43.006Z,74.50
2018-08-06T19:49:46.144Z,65.10
2018-08-06T19:51:17.713Z,65.20
2018-08-06T19:52:49.283Z,67.80
2018-08-06T19:55:52.423Z,76.10
2018-08-06T19:57:24.069Z,66.40
2018-08-06T19:58:55.562Z,65.90
2018-08-06T20:00:27.131Z,69.70
2018-08-06T20:01:58.807Z,64.10
2018-08-06T20:03:30.296Z,69.00
2018-08-06T20:05:01.841Z,59.80
2018-08-06T20:06:33.410Z,63.10
2018-08-06T20:08:04.984Z,61.70
2018-08-06T20:09:36.548Z,59.50
2018-08-06T20:11:08.118Z,63.90
2018-08-06T20:12:39.686Z,59.80
2018-08-06T20:14:11.257Z,67.80
2018-08-06T20:15:42.826Z,70.20
2018-08-06T20:17:14.394Z,67.70
2018-08-06T20:18:45.963Z,71.00
2018-08-06T20:20:17.637Z,64.70
2018-08-06T20:21:49.105Z,68.40
2018-08-06T20:24:52.239Z,65.60
2018-08-06T20:26:24.059Z,63.50
2018-08-06T20:27:55.376Z,71.20
2018-08-06T20:29:26.945Z,77.40
2018-08-06T20:30:58.515Z,63.40
2018-08-06T20:32:30.084Z,60.00
2018-08-06T20:34:01.652Z,52.00
2018-08-06T20:35:33.398Z,53.50
2018-08-06T20:37:04.788Z,62.00
2018-08-06T20:38:36.457Z,58.10
2018-08-06T20:40:07.924Z,65.10
2018-08-06T20:41:39.494Z,55.20
2018-08-06T20:43:11.063Z,52.80
2018-08-06T20:44:42.629Z,47.30
2018-08-06T20:46:14.200Z,51.70
2018-08-06T20:47:45.767Z,51.10
2018-08-06T20:49:17.334Z,55.50
2018-08-06T20:50:48.902Z,53.60
2018-08-06T20:52:20.471Z,58.90
2018-08-06T20:53:52.039Z,53.40
2018-08-06T20:55:23.607Z,51.10
2018-08-06T20:56:55.563Z,63.40
2018-08-06T20:58:26.743Z,54.00
2018-08-06T20:59:58.312Z,62.00
2018-08-06T21:01:29.880Z,56.00
2018-08-06T21:03:01.522Z,54.20
2018-08-06T21:04:33.017Z,53.60
2018-08-06T21:06:04.584Z,55.50
2018-08-06T21:07:36.154Z,60.50
2018-08-06T21:09:07.722Z,56.90
2018-08-06T21:10:39.289Z,61.00
2018-08-06T21:12:10.858Z,55.70
2018-08-06T21:13:42.426Z,53.70
2018-08-06T21:15:14.095Z,58.90